sensor_id;sensor_type;location;lat;lon;timestamp;pressure;altitude;pressure_sealevel;temperature;humidity
63493;BME280;49638;47.526;10.028;2023-04-02T00:05:28;90980.22;;;5.69;82.07
63493;BME280;49638;47.526;10.028;2023-04-02T00:08:37;90983.16;;;5.73;82.25
63493;BME280;49638;47.526;10.028;2023-04-02T00:11:45;90986.69;;;5.66;82.46
63493;BME280;49638;47.526;10.028;2023-04-02T00:14:50;90989.78;;;5.75;82.32
63493;BME280;49638;47.526;10.028;2023-04-02T00:17:51;90993.19;;;5.76;83.54
63493;BME280;49638;47.526;10.028;2023-04-02T00:21:09;90990.81;;;5.74;82.79
63493;BME280;49638;47.526;10.028;2023-04-02T00:24:15;90976.22;;;5.66;81.93
63493;BME280;49638;47.526;10.028;2023-04-02T00:27:16;90998.91;;;5.73;82.44
63493;BME280;49638;47.526;10.028;2023-04-02T00:30:17;90982.25;;;5.67;82.83
63493;BME280;49638;47.526;10.028;2023-04-02T00:33:20;90991.81;;;5.73;82.68
63493;BME280;49638;47.526;10.028;2023-04-02T00:36:21;90998.09;;;5.72;82.43
63493;BME280;49638;47.526;10.028;2023-04-02T00:39:33;91004.47;;;5.76;82.62
63493;BME280;49638;47.526;10.028;2023-04-02T00:42:39;91006.31;;;5.76;82.20
63493;BME280;49638;47.526;10.028;2023-04-02T00:45:39;91009.63;;;5.71;82.40
63493;BME280;49638;47.526;10.028;2023-04-02T00:48:47;91008.97;;;5.64;82.43
63493;BME280;49638;47.526;10.028;2023-04-02T00:52:16;91004.50;;;5.64;81.90
63493;BME280;49638;47.526;10.028;2023-04-02T00:55:21;91010.88;;;5.57;82.25
63493;BME280;49638;47.526;10.028;2023-04-02T00:58:31;91016.00;;;5.63;82.61
63493;BME280;49638;47.526;10.028;2023-04-02T01:01:35;91013.94;;;5.65;82.42
63493;BME280;49638;47.526;10.028;2023-04-02T01:04:37;91015.53;;;5.66;82.39
63493;BME280;49638;47.526;10.028;2023-04-02T01:07:50;91011.34;;;5.65;82.37
63493;BME280;49638;47.526;10.028;2023-04-02T01:14:48;91007.69;;;5.66;82.18
63493;BME280;49638;47.526;10.028;2023-04-02T01:18:19;91007.13;;;5.64;82.44
63493;BME280;49638;47.526;10.028;2023-04-02T01:24:33;91005.75;;;5.50;82.35
63493;BME280;49638;47.526;10.028;2023-04-02T01:27:48;91009.75;;;5.53;82.71
63493;BME280;49638;47.526;10.028;2023-04-02T01:30:52;91017.41;;;5.54;82.33
63493;BME280;49638;47.526;10.028;2023-04-02T01:33:54;91019.22;;;5.54;82.62
63493;BME280;49638;47.526;10.028;2023-04-02T01:37:22;91015.00;;;5.53;83.48
63493;BME280;49638;47.526;10.028;2023-04-02T01:43:45;91004.88;;;5.44;82.94
63493;BME280;49638;47.526;10.028;2023-04-02T01:46:49;91017.06;;;5.51;83.37
63493;BME280;49638;47.526;10.028;2023-04-02T01:49:52;91014.09;;;5.47;83.53
63493;BME280;49638;47.526;10.028;2023-04-02T01:52:55;91015.22;;;5.51;83.41
63493;BME280;49638;47.526;10.028;2023-04-02T01:55:59;91009.75;;;5.53;83.30
63493;BME280;49638;47.526;10.028;2023-04-02T01:59:00;91018.31;;;5.48;83.58
63493;BME280;49638;47.526;10.028;2023-04-02T02:02:04;91009.88;;;5.46;83.40
63493;BME280;49638;47.526;10.028;2023-04-02T02:05:11;91015.34;;;5.44;84.00
63493;BME280;49638;47.526;10.028;2023-04-02T02:08:28;91012.94;;;5.43;84.55
63493;BME280;49638;47.526;10.028;2023-04-02T02:11:32;91011.34;;;5.42;83.96
63493;BME280;49638;47.526;10.028;2023-04-02T02:14:32;91011.69;;;5.45;83.71
63493;BME280;49638;47.526;10.028;2023-04-02T02:17:32;91014.09;;;5.47;83.42
63493;BME280;49638;47.526;10.028;2023-04-02T02:20:33;91014.09;;;5.47;83.44
63493;BME280;49638;47.526;10.028;2023-04-02T02:23:35;91020.94;;;5.48;83.39
63493;BME280;49638;47.526;10.028;2023-04-02T02:26:36;91024.59;;;5.47;83.54
63493;BME280;49638;47.526;10.028;2023-04-02T02:29:39;91021.38;;;5.45;83.51
63493;BME280;49638;47.526;10.028;2023-04-02T02:33:30;91025.03;;;5.44;83.76
63493;BME280;49638;47.526;10.028;2023-04-02T02:36:42;91024.47;;;5.42;83.56
63493;BME280;49638;47.526;10.028;2023-04-02T02:39:52;91021.03;;;5.41;83.52
63493;BME280;49638;47.526;10.028;2023-04-02T02:42:57;91024.56;;;5.35;83.62
63493;BME280;49638;47.526;10.028;2023-04-02T02:46:01;91035.19;;;5.40;83.50
63493;BME280;49638;47.526;10.028;2023-04-02T02:49:03;91031.28;;;5.43;83.34
63493;BME280;49638;47.526;10.028;2023-04-02T02:55:21;91022.66;;;5.31;83.64
63493;BME280;49638;47.526;10.028;2023-04-02T02:58:25;91034.84;;;5.37;83.65
63493;BME280;49638;47.526;10.028;2023-04-02T03:01:28;91034.59;;;5.38;83.33
63493;BME280;49638;47.526;10.028;2023-04-02T03:04:30;91042.22;;;5.40;83.32
63493;BME280;49638;47.526;10.028;2023-04-02T03:07:34;91040.09;;;5.37;83.43
63493;BME280;49638;47.526;10.028;2023-04-02T03:10:43;91047.47;;;5.40;83.22
63493;BME280;49638;47.526;10.028;2023-04-02T03:13:49;91025.28;;;5.31;83.44
63493;BME280;49638;47.526;10.028;2023-04-02T03:16:56;91052.16;;;5.38;83.82
63493;BME280;49638;47.526;10.028;2023-04-02T03:20:00;91048.06;;;5.30;83.96
63493;BME280;49638;47.526;10.028;2023-04-02T03:23:31;91057.06;;;5.34;84.40
63493;BME280;49638;47.526;10.028;2023-04-02T03:26:38;91056.81;;;5.36;84.11
63493;BME280;49638;47.526;10.028;2023-04-02T03:29:42;91045.88;;;5.27;83.84
63493;BME280;49638;47.526;10.028;2023-04-02T03:32:47;91067.88;;;5.38;84.42
63493;BME280;49638;47.526;10.028;2023-04-02T03:36:13;91072.53;;;5.36;85.75
63493;BME280;49638;47.526;10.028;2023-04-02T03:39:35;91069.13;;;5.35;85.37
63493;BME280;49638;47.526;10.028;2023-04-02T03:42:49;91061.25;;;5.24;85.24
63493;BME280;49638;47.526;10.028;2023-04-02T03:45:54;91077.53;;;5.26;85.12
63493;BME280;49638;47.526;10.028;2023-04-02T03:49:02;91083.81;;;5.25;85.48
63493;BME280;49638;47.526;10.028;2023-04-02T03:52:10;91087.91;;;5.20;85.40
63493;BME280;49638;47.526;10.028;2023-04-02T03:55:15;91085.75;;;5.17;85.47
63493;BME280;49638;47.526;10.028;2023-04-02T03:58:23;91082.31;;;5.17;85.73
63493;BME280;49638;47.526;10.028;2023-04-02T04:01:30;91080.81;;;5.09;85.55
63493;BME280;49638;47.526;10.028;2023-04-02T04:04:34;91088.34;;;5.17;85.32
63493;BME280;49638;47.526;10.028;2023-04-02T04:07:40;91084.59;;;5.13;85.04
63493;BME280;49638;47.526;10.028;2023-04-02T04:10:42;91086.97;;;5.15;85.12
63493;BME280;49638;47.526;10.028;2023-04-02T04:13:53;91099.63;;;5.18;85.54
63493;BME280;49638;47.526;10.028;2023-04-02T04:23:32;91097.34;;;5.10;86.25
63493;BME280;49638;47.526;10.028;2023-04-02T04:26:43;91097.56;;;5.08;86.03
63493;BME280;49638;47.526;10.028;2023-04-02T04:30:03;91110.56;;;5.15;86.42
63493;BME280;49638;47.526;10.028;2023-04-02T04:33:12;91116.03;;;5.13;85.81
63493;BME280;49638;47.526;10.028;2023-04-02T04:36:23;91117.81;;;5.13;86.31
63493;BME280;49638;47.526;10.028;2023-04-02T04:39:43;91125.13;;;5.11;87.02
63493;BME280;49638;47.526;10.028;2023-04-02T04:42:47;91123.88;;;5.13;85.83
63493;BME280;49638;47.526;10.028;2023-04-02T04:45:54;91135.59;;;5.11;85.90
63493;BME280;49638;47.526;10.028;2023-04-02T04:49:46;91137.28;;;5.05;87.66
63493;BME280;49638;47.526;10.028;2023-04-02T04:52:51;91144.69;;;5.08;85.48
63493;BME280;49638;47.526;10.028;2023-04-02T04:56:02;91144.16;;;5.06;85.63
63493;BME280;49638;47.526;10.028;2023-04-02T05:02:18;91137.88;;;5.07;86.05
63493;BME280;49638;47.526;10.028;2023-04-02T05:05:28;91147.31;;;5.08;86.32
63493;BME280;49638;47.526;10.028;2023-04-02T05:08:33;91147.91;;;5.10;86.08
63493;BME280;49638;47.526;10.028;2023-04-02T05:11:40;91137.28;;;5.05;86.25
63493;BME280;49638;47.526;10.028;2023-04-02T05:14:49;91154.50;;;5.13;86.53
63493;BME280;49638;47.526;10.028;2023-04-02T05:21:50;91164.19;;;5.12;87.60
63493;BME280;49638;47.526;10.028;2023-04-02T05:25:12;91162.59;;;5.11;86.75
63493;BME280;49638;47.526;10.028;2023-04-02T05:28:29;91161.13;;;5.15;86.92
63493;BME280;49638;47.526;10.028;2023-04-02T05:31:39;91162.16;;;5.14;86.34
63493;BME280;49638;47.526;10.028;2023-04-02T05:34:46;91151.41;;;5.04;86.09
63493;BME280;49638;47.526;10.028;2023-04-02T05:37:48;91174.00;;;5.17;85.96
63493;BME280;49638;47.526;10.028;2023-04-02T05:40:53;91180.59;;;5.19;86.04
63493;BME280;49638;47.526;10.028;2023-04-02T05:44:05;91178.56;;;5.21;86.47
63493;BME280;49638;47.526;10.028;2023-04-02T05:47:12;91185.97;;;5.25;86.37
63493;BME280;49638;47.526;10.028;2023-04-02T05:56:32;91190.88;;;5.33;85.77
63493;BME280;49638;47.526;10.028;2023-04-02T05:59:42;91198.78;;;5.44;85.61
63493;BME280;49638;47.526;10.028;2023-04-02T06:02:58;91194.78;;;5.42;85.78
63493;BME280;49638;47.526;10.028;2023-04-02T06:06:05;91207.69;;;5.55;85.60
63493;BME280;49638;47.526;10.028;2023-04-02T06:12:36;91204.44;;;5.72;85.20
63493;BME280;49638;47.526;10.028;2023-04-02T06:15:38;91200.66;;;5.67;85.49
63493;BME280;49638;47.526;10.028;2023-04-02T06:18:40;91201.34;;;5.75;85.24
63493;BME280;49638;47.526;10.028;2023-04-02T06:21:46;91212.28;;;5.83;84.22
63493;BME280;49638;47.526;10.028;2023-04-02T06:24:57;91216.28;;;5.86;85.03
63493;BME280;49638;47.526;10.028;2023-04-02T06:28:03;91206.25;;;5.83;84.68
63493;BME280;49638;47.526;10.028;2023-04-02T06:31:11;91221.22;;;5.94;84.87
63493;BME280;49638;47.526;10.028;2023-04-02T06:34:20;91218.00;;;5.92;84.17
63493;BME280;49638;47.526;10.028;2023-04-02T06:37:31;91218.22;;;5.90;84.32
63493;BME280;49638;47.526;10.028;2023-04-02T06:40:43;91220.63;;;5.92;83.71
63493;BME280;49638;47.526;10.028;2023-04-02T06:43:56;91221.47;;;5.92;83.49
63493;BME280;49638;47.526;10.028;2023-04-02T06:47:49;91229.16;;;5.87;83.56
63493;BME280;49638;47.526;10.028;2023-04-02T06:53:35;91230.16;;;6.05;83.33
63493;BME280;49638;47.526;10.028;2023-04-02T06:56:50;91239.84;;;6.16;82.63
63493;BME280;49638;47.526;10.028;2023-04-02T06:59:51;91238.13;;;6.22;83.43
63493;BME280;49638;47.526;10.028;2023-04-02T07:02:53;91242.13;;;6.36;83.61
63493;BME280;49638;47.526;10.028;2023-04-02T07:05:55;91232.41;;;6.36;83.67
63493;BME280;49638;47.526;10.028;2023-04-02T07:08:55;91241.31;;;6.47;83.35
63493;BME280;49638;47.526;10.028;2023-04-02T07:11:55;91240.84;;;6.50;83.11
63493;BME280;49638;47.526;10.028;2023-04-02T07:14:56;91240.72;;;6.45;83.57
63493;BME280;49638;47.526;10.028;2023-04-02T07:17:57;91249.75;;;6.49;82.82
63493;BME280;49638;47.526;10.028;2023-04-02T07:20:58;91252.59;;;6.59;82.90
63493;BME280;49638;47.526;10.028;2023-04-02T07:23:59;91251.19;;;6.69;82.23
63493;BME280;49638;47.526;10.028;2023-04-02T07:26:59;91245.50;;;6.72;82.00
63493;BME280;49638;47.526;10.028;2023-04-02T07:30:00;91261.13;;;6.78;81.98
63493;BME280;49638;47.526;10.028;2023-04-02T07:33:00;91260.34;;;6.78;81.54
63493;BME280;49638;47.526;10.028;2023-04-02T07:36:00;91265.22;;;6.86;81.22
63493;BME280;49638;47.526;10.028;2023-04-02T07:39:02;91270.13;;;6.94;80.84
63493;BME280;49638;47.526;10.028;2023-04-02T07:42:03;91271.72;;;6.95;81.01
63493;BME280;49638;47.526;10.028;2023-04-02T07:45:03;91269.88;;;6.96;80.87
63493;BME280;49638;47.526;10.028;2023-04-02T07:48:08;91274.91;;;6.97;79.60
63493;BME280;49638;47.526;10.028;2023-04-02T07:51:17;91284.50;;;7.03;79.86
63493;BME280;49638;47.526;10.028;2023-04-02T07:54:18;91285.06;;;7.05;80.19
63493;BME280;49638;47.526;10.028;2023-04-02T07:57:18;91288.81;;;7.09;79.87
63493;BME280;49638;47.526;10.028;2023-04-02T08:00:20;91275.91;;;7.08;79.64
63493;BME280;49638;47.526;10.028;2023-04-02T08:03:20;91282.75;;;7.21;79.75
63493;BME280;49638;47.526;10.028;2023-04-02T08:06:22;91294.81;;;7.33;79.83
63493;BME280;49638;47.526;10.028;2023-04-02T08:09:22;91297.41;;;7.45;79.42
63493;BME280;49638;47.526;10.028;2023-04-02T08:12:23;91294.72;;;7.57;79.24
63493;BME280;49638;47.526;10.028;2023-04-02T08:15:23;91281.09;;;7.60;79.25
63493;BME280;49638;47.526;10.028;2023-04-02T08:18:23;91299.00;;;7.75;79.04
63493;BME280;49638;47.526;10.028;2023-04-02T08:21:23;91299.56;;;7.77;79.07
63493;BME280;49638;47.526;10.028;2023-04-02T08:24:25;91302.09;;;7.72;78.45
63493;BME280;49638;47.526;10.028;2023-04-02T08:27:26;91306.94;;;7.92;78.83
63493;BME280;49638;47.526;10.028;2023-04-02T08:30:26;91308.22;;;8.06;78.80
63493;BME280;49638;47.526;10.028;2023-04-02T08:33:26;91302.50;;;8.09;77.90
63493;BME280;49638;47.526;10.028;2023-04-02T08:36:33;91298.09;;;8.15;75.31
63493;BME280;49638;47.526;10.028;2023-04-02T08:39:34;91307.13;;;8.19;77.14
63493;BME280;49638;47.526;10.028;2023-04-02T08:42:44;91310.31;;;8.21;72.99
63493;BME280;49638;47.526;10.028;2023-04-02T08:46:04;91308.00;;;8.24;72.23
63493;BME280;49638;47.526;10.028;2023-04-02T08:49:16;91300.41;;;8.28;74.48
63493;BME280;49638;47.526;10.028;2023-04-02T08:52:21;91305.41;;;8.41;75.67
63493;BME280;49638;47.526;10.028;2023-04-02T08:55:42;91306.28;;;8.47;73.48
63493;BME280;49638;47.526;10.028;2023-04-02T08:58:49;91311.94;;;8.56;74.12
63493;BME280;49638;47.526;10.028;2023-04-02T09:02:21;91311.69;;;8.57;69.60
63493;BME280;49638;47.526;10.028;2023-04-02T09:05:30;91316.72;;;8.59;72.81
63493;BME280;49638;47.526;10.028;2023-04-02T09:08:32;91322.97;;;8.52;74.22
63493;BME280;49638;47.526;10.028;2023-04-02T09:11:38;91317.34;;;8.49;74.42
63493;BME280;49638;47.526;10.028;2023-04-02T09:14:43;91316.25;;;8.62;74.23
63493;BME280;49638;47.526;10.028;2023-04-02T09:17:44;91323.13;;;8.63;74.00
63493;BME280;49638;47.526;10.028;2023-04-02T09:20:44;91324.88;;;8.74;73.34
63493;BME280;49638;47.526;10.028;2023-04-02T09:23:48;91324.22;;;8.84;72.75
63493;BME280;49638;47.526;10.028;2023-04-02T09:26:48;91324.41;;;8.99;72.92
63493;BME280;49638;47.526;10.028;2023-04-02T09:33:10;91333.00;;;9.28;71.63
63493;BME280;49638;47.526;10.028;2023-04-02T09:39:32;91346.34;;;9.43;70.10
63493;BME280;49638;47.526;10.028;2023-04-02T09:42:35;91346.13;;;9.45;69.57
63493;BME280;49638;47.526;10.028;2023-04-02T09:45:37;91341.03;;;9.38;69.07
63493;BME280;49638;47.526;10.028;2023-04-02T09:48:57;91350.97;;;9.31;65.58
63493;BME280;49638;47.526;10.028;2023-04-02T09:52:25;91360.38;;;9.27;63.28
63493;BME280;49638;47.526;10.028;2023-04-02T09:55:27;91349.22;;;9.20;68.14
63493;BME280;49638;47.526;10.028;2023-04-02T09:58:29;91362.69;;;9.23;68.11
63493;BME280;49638;47.526;10.028;2023-04-02T10:01:36;91357.84;;;9.15;65.68
63493;BME280;49638;47.526;10.028;2023-04-02T10:04:42;91376.06;;;9.17;68.16
63493;BME280;49638;47.526;10.028;2023-04-02T10:07:48;91375.84;;;9.02;68.15
63493;BME280;49638;47.526;10.028;2023-04-02T10:10:52;91367.50;;;8.88;67.89
63493;BME280;49638;47.526;10.028;2023-04-02T10:13:58;91382.03;;;8.90;67.57
63493;BME280;49638;47.526;10.028;2023-04-02T10:17:16;91368.91;;;8.95;64.57
63493;BME280;49638;47.526;10.028;2023-04-02T10:20:22;91370.41;;;9.08;66.95
63493;BME280;49638;47.526;10.028;2023-04-02T10:23:27;91381.59;;;9.15;66.98
63493;BME280;49638;47.526;10.028;2023-04-02T10:30:25;91376.63;;;9.19;63.02
63493;BME280;49638;47.526;10.028;2023-04-02T10:33:32;91380.44;;;9.28;64.54
63493;BME280;49638;47.526;10.028;2023-04-02T10:39:43;91385.44;;;9.46;63.67
63493;BME280;49638;47.526;10.028;2023-04-02T10:53:15;91387.59;;;9.71;61.78
63493;BME280;49638;47.526;10.028;2023-04-02T10:56:16;91386.00;;;9.70;66.04
63493;BME280;49638;47.526;10.028;2023-04-02T10:59:23;91397.22;;;9.83;63.14
63493;BME280;49638;47.526;10.028;2023-04-02T11:02:33;91382.44;;;9.82;63.63
63493;BME280;49638;47.526;10.028;2023-04-02T11:05:41;91393.66;;;9.94;61.55
63493;BME280;49638;47.526;10.028;2023-04-02T11:08:46;91389.66;;;9.91;63.92
63493;BME280;49638;47.526;10.028;2023-04-02T11:11:50;91399.00;;;9.99;63.19
63493;BME280;49638;47.526;10.028;2023-04-02T11:14:53;91386.84;;;9.98;63.83
63493;BME280;49638;47.526;10.028;2023-04-02T11:17:54;91390.66;;;10.07;63.55
63493;BME280;49638;47.526;10.028;2023-04-02T11:20:59;91403.47;;;10.21;62.70
63493;BME280;49638;47.526;10.028;2023-04-02T11:24:00;91402.25;;;10.28;64.08
63493;BME280;49638;47.526;10.028;2023-04-02T11:33:37;91405.94;;;10.27;57.95
63493;BME280;49638;47.526;10.028;2023-04-02T11:39:55;91408.91;;;10.09;63.45
63493;BME280;49638;47.526;10.028;2023-04-02T11:46:38;91414.66;;;10.06;60.38
63493;BME280;49638;47.526;10.028;2023-04-02T11:49:56;91416.47;;;10.05;57.48
63493;BME280;49638;47.526;10.028;2023-04-02T11:53:21;91412.06;;;10.11;56.84
63493;BME280;49638;47.526;10.028;2023-04-02T11:56:31;91408.38;;;10.12;59.35
63493;BME280;49638;47.526;10.028;2023-04-02T11:59:46;91411.56;;;10.14;60.39
63493;BME280;49638;47.526;10.028;2023-04-02T12:03:19;91418.59;;;10.03;59.96
63493;BME280;49638;47.526;10.028;2023-04-02T12:09:57;91419.00;;;9.95;62.29
63493;BME280;49638;47.526;10.028;2023-04-02T12:12:59;91431.50;;;10.00;62.74
63493;BME280;49638;47.526;10.028;2023-04-02T12:16:00;91424.63;;;9.99;62.18
63493;BME280;49638;47.526;10.028;2023-04-02T12:19:07;91402.88;;;9.91;60.14
63493;BME280;49638;47.526;10.028;2023-04-02T12:22:17;91420.44;;;10.03;60.39
63493;BME280;49638;47.526;10.028;2023-04-02T12:25:26;91431.13;;;10.13;59.63
63493;BME280;49638;47.526;10.028;2023-04-02T12:28:29;91425.34;;;10.16;61.86
63493;BME280;49638;47.526;10.028;2023-04-02T12:31:30;91430.19;;;10.24;62.08
63493;BME280;49638;47.526;10.028;2023-04-02T12:34:32;91425.94;;;10.23;62.73
63493;BME280;49638;47.526;10.028;2023-04-02T12:37:32;91422.25;;;10.24;62.95
63493;BME280;49638;47.526;10.028;2023-04-02T12:40:33;91433.22;;;10.33;62.61
63493;BME280;49638;47.526;10.028;2023-04-02T12:43:34;91436.38;;;10.35;62.65
63493;BME280;49638;47.526;10.028;2023-04-02T12:46:37;91434.53;;;10.35;63.15
63493;BME280;49638;47.526;10.028;2023-04-02T12:49:40;91426.97;;;10.22;63.37
63493;BME280;49638;47.526;10.028;2023-04-02T12:52:44;91443.59;;;10.39;63.03
63493;BME280;49638;47.526;10.028;2023-04-02T12:55:47;91434.34;;;10.42;62.78
63493;BME280;49638;47.526;10.028;2023-04-02T12:59:27;91445.81;;;10.53;60.32
63493;BME280;49638;47.526;10.028;2023-04-02T13:02:30;91453.00;;;10.57;63.00
63493;BME280;49638;47.526;10.028;2023-04-02T13:05:39;91445.81;;;10.53;61.98
63493;BME280;49638;47.526;10.028;2023-04-02T13:08:42;91439.72;;;10.52;63.30
63493;BME280;49638;47.526;10.028;2023-04-02T13:11:42;91449.63;;;10.62;63.04
63493;BME280;49638;47.526;10.028;2023-04-02T13:14:42;91448.06;;;10.66;63.22
63493;BME280;49638;47.526;10.028;2023-04-02T13:17:45;91442.47;;;10.62;62.67
63493;BME280;49638;47.526;10.028;2023-04-02T13:20:59;91457.09;;;10.70;57.78
63493;BME280;49638;47.526;10.028;2023-04-02T13:24:01;91451.28;;;10.73;56.67
63493;BME280;49638;47.526;10.028;2023-04-02T13:27:02;91455.78;;;10.73;61.72
63493;BME280;49638;47.526;10.028;2023-04-02T13:30:07;91457.84;;;10.65;60.11
63493;BME280;49638;47.526;10.028;2023-04-02T13:33:08;91448.53;;;10.58;61.06
63493;BME280;49638;47.526;10.028;2023-04-02T13:36:14;91460.44;;;10.60;60.79
63493;BME280;49638;47.526;10.028;2023-04-02T13:39:15;91461.72;;;10.58;62.34
63493;BME280;49638;47.526;10.028;2023-04-02T13:42:16;91446.88;;;10.52;62.25
63493;BME280;49638;47.526;10.028;2023-04-02T13:45:23;91463.31;;;10.59;62.14
63493;BME280;49638;47.526;10.028;2023-04-02T13:48:24;91469.34;;;10.54;63.13
63493;BME280;49638;47.526;10.028;2023-04-02T13:54:40;91462.69;;;10.47;63.42
63493;BME280;49638;47.526;10.028;2023-04-02T13:57:42;91457.09;;;10.43;63.60
63493;BME280;49638;47.526;10.028;2023-04-02T14:00:42;91458.53;;;10.56;63.88
63493;BME280;49638;47.526;10.028;2023-04-02T14:03:43;91464.69;;;10.61;63.70
63493;BME280;49638;47.526;10.028;2023-04-02T14:06:57;91454.41;;;10.65;62.74
63493;BME280;49638;47.526;10.028;2023-04-02T14:10:22;91461.84;;;10.68;60.71
63493;BME280;49638;47.526;10.028;2023-04-02T14:13:45;91465.63;;;10.77;60.85
63493;BME280;49638;47.526;10.028;2023-04-02T14:20:53;91472.78;;;10.77;59.95
63493;BME280;49638;47.526;10.028;2023-04-02T14:24:13;91474.34;;;10.78;62.13
63493;BME280;49638;47.526;10.028;2023-04-02T14:30:39;91469.38;;;10.81;61.66
63493;BME280;49638;47.526;10.028;2023-04-02T14:34:05;91469.88;;;10.78;60.11
63493;BME280;49638;47.526;10.028;2023-04-02T14:40:47;91480.13;;;10.75;61.54
63493;BME280;49638;47.526;10.028;2023-04-02T14:43:55;91474.75;;;10.64;63.32
63493;BME280;49638;47.526;10.028;2023-04-02T14:47:07;91474.94;;;10.58;63.02
63493;BME280;49638;47.526;10.028;2023-04-02T14:50:12;91483.13;;;10.56;59.75
63493;BME280;49638;47.526;10.028;2023-04-02T14:53:26;91470.84;;;10.45;62.39
63493;BME280;49638;47.526;10.028;2023-04-02T14:56:32;91486.75;;;10.50;63.26
63493;BME280;49638;47.526;10.028;2023-04-02T14:59:44;91485.59;;;10.41;62.69
63493;BME280;49638;47.526;10.028;2023-04-02T15:06:01;91489.03;;;10.41;62.66
63493;BME280;49638;47.526;10.028;2023-04-02T15:09:05;91482.88;;;10.36;62.36
63493;BME280;49638;47.526;10.028;2023-04-02T15:12:23;91495.41;;;10.46;61.89
63493;BME280;49638;47.526;10.028;2023-04-02T15:15:54;91492.78;;;10.46;60.69
63493;BME280;49638;47.526;10.028;2023-04-02T15:18:58;91489.09;;;10.47;62.38
63493;BME280;49638;47.526;10.028;2023-04-02T15:28:33;91488.16;;;10.36;61.64
63493;BME280;49638;47.526;10.028;2023-04-02T15:31:40;91494.75;;;10.33;61.85
63493;BME280;49638;47.526;10.028;2023-04-02T15:34:47;91494.94;;;10.27;62.15
63493;BME280;49638;47.526;10.028;2023-04-02T15:47:19;91504.44;;;10.06;61.86
63493;BME280;49638;47.526;10.028;2023-04-02T15:53:50;91500.03;;;9.94;62.69
63493;BME280;49638;47.526;10.028;2023-04-02T15:57:41;91502.31;;;9.86;61.68
63493;BME280;49638;47.526;10.028;2023-04-02T16:01:01;91508.00;;;9.78;62.35
63493;BME280;49638;47.526;10.028;2023-04-02T16:10:58;91513.16;;;9.51;63.54
63493;BME280;49638;47.526;10.028;2023-04-02T16:14:15;91514.47;;;9.48;62.83
63493;BME280;49638;47.526;10.028;2023-04-02T16:17:30;91513.47;;;9.37;63.53
63493;BME280;49638;47.526;10.028;2023-04-02T16:20:35;91525.88;;;9.37;64.38
63493;BME280;49638;47.526;10.028;2023-04-02T16:23:38;91535.94;;;9.23;65.21
63493;BME280;49638;47.526;10.028;2023-04-02T16:26:56;91538.41;;;9.13;66.55
63493;BME280;49638;47.526;10.028;2023-04-02T16:53:46;91565.47;;;8.63;67.10
63493;BME280;49638;47.526;10.028;2023-04-02T17:03:11;91590.13;;;8.33;67.36
63493;BME280;49638;47.526;10.028;2023-04-02T17:06:39;91588.09;;;8.23;68.19
63493;BME280;49638;47.526;10.028;2023-04-02T17:09:49;91598.28;;;8.20;68.41
63493;BME280;49638;47.526;10.028;2023-04-02T17:13:24;91606.06;;;8.15;69.24
63493;BME280;49638;47.526;10.028;2023-04-02T17:16:41;91603.00;;;8.06;70.35
63493;BME280;49638;47.526;10.028;2023-04-02T17:19:43;91615.34;;;8.05;69.29
63493;BME280;49638;47.526;10.028;2023-04-02T17:22:44;91615.47;;;7.99;69.92
63493;BME280;49638;47.526;10.028;2023-04-02T17:26:06;91622.34;;;7.88;71.44
63493;BME280;49638;47.526;10.028;2023-04-02T17:29:22;91630.69;;;7.85;70.37
63493;BME280;49638;47.526;10.028;2023-04-02T17:32:29;91639.03;;;7.82;70.46
63493;BME280;49638;47.526;10.028;2023-04-02T17:35:38;91627.84;;;7.75;70.29
63493;BME280;49638;47.526;10.028;2023-04-02T17:38:53;91637.75;;;7.73;71.17
63493;BME280;49638;47.526;10.028;2023-04-02T17:42:19;91641.31;;;7.67;72.47
63493;BME280;49638;47.526;10.028;2023-04-02T17:45:27;91647.47;;;7.61;71.41
63493;BME280;49638;47.526;10.028;2023-04-02T17:48:41;91650.88;;;7.49;73.14
63493;BME280;49638;47.526;10.028;2023-04-02T17:51:47;91655.09;;;7.39;72.47
63493;BME280;49638;47.526;10.028;2023-04-02T17:55:13;91664.56;;;7.40;74.85
63493;BME280;49638;47.526;10.028;2023-04-02T17:58:39;91672.69;;;7.38;73.27
63493;BME280;49638;47.526;10.028;2023-04-02T18:04:54;91666.84;;;7.36;73.72
63493;BME280;49638;47.526;10.028;2023-04-02T18:08:10;91689.03;;;7.40;74.79
63493;BME280;49638;47.526;10.028;2023-04-02T18:11:38;91691.19;;;7.31;75.04
63493;BME280;49638;47.526;10.028;2023-04-02T18:14:51;91695.94;;;7.23;73.34
63493;BME280;49638;47.526;10.028;2023-04-02T18:21:45;91709.59;;;7.01;75.82
63493;BME280;49638;47.526;10.028;2023-04-02T18:25:06;91699.38;;;6.93;77.16
63493;BME280;49638;47.526;10.028;2023-04-02T18:31:42;91713.16;;;6.88;77.39
63493;BME280;49638;47.526;10.028;2023-04-02T18:35:19;91717.78;;;6.75;77.44
63493;BME280;49638;47.526;10.028;2023-04-02T18:44:53;91728.44;;;6.80;75.98
63493;BME280;49638;47.526;10.028;2023-04-02T18:51:25;91727.41;;;6.81;75.08
63493;BME280;49638;47.526;10.028;2023-04-02T18:54:37;91737.13;;;6.80;76.28
63493;BME280;49638;47.526;10.028;2023-04-02T18:57:38;91742.13;;;6.82;74.94
63493;BME280;49638;47.526;10.028;2023-04-02T19:00:43;91734.06;;;6.83;75.00
63493;BME280;49638;47.526;10.028;2023-04-02T19:03:51;91741.94;;;6.83;75.49
63493;BME280;49638;47.526;10.028;2023-04-02T19:07:03;91737.47;;;6.84;75.24
63493;BME280;49638;47.526;10.028;2023-04-02T19:10:30;91751.06;;;6.81;75.69
63493;BME280;49638;47.526;10.028;2023-04-02T19:13:30;91740.53;;;6.81;74.75
63493;BME280;49638;47.526;10.028;2023-04-02T19:26:25;91759.97;;;6.80;75.86
63493;BME280;49638;47.526;10.028;2023-04-02T19:33:28;91759.72;;;6.81;76.37
63493;BME280;49638;47.526;10.028;2023-04-02T19:36:40;91763.16;;;6.82;75.57
63493;BME280;49638;47.526;10.028;2023-04-02T19:39:58;91774.31;;;6.77;77.07
63493;BME280;49638;47.526;10.028;2023-04-02T19:43:02;91780.59;;;6.76;75.96
63493;BME280;49638;47.526;10.028;2023-04-02T19:46:03;91781.78;;;6.80;75.71